Terminal Aerodrome Forecast
Issued by NWS

Home | Current Version | Previous Version | Text Only | Print | Product List | Glossary On
Versions: 1 2 3 4 5 6 7 8 9 10 11 12 13 14 15 16 17
318
FTUS43 KABR 180521
TAFPIR
TAF
KPIR 180521Z 1806/1906 VRB05KT P6SM VCSH OVC045
     FM181100 30014KT P6SM SCT250
     FM190000 VRB06KT P6SM FEW250=

USA.gov is the U.S. government's official web portal to all federal, state and local government web resources and services.